Satori — WDC4937 — position and weather

sailwx.info

Track history (hours):
 
Tides and Currents Weather Stations Pressure Air Temp Water Temp Dewpoint Dewpoint Depression Visibility Wind Speed Wind Dir Waves Ship Positions

Satori

Owner: Wozny, Geoffrey A, Stamford, CT. More information available from US FCC via Universal Licensing System and Coast Guard Vessel Documentation Center.

Last reported at 2014-Sep-29 00:32 UTC. Time now 2014-Oct-25 04:23 UTC.
Position N 41°02' W 073°32'.
Warning: this ship's position is 26 days out of date.

Length 13 m.

Type: Sailing vessel. MMSI: 367033160.

Date/timePositionNaut miles runAvg speedWind from/ knotsBaromVisibWave heightAir tempDewpointWater temp
2014-Sep-29 00:32N 41°02' W 073°32'0 0.0
2014-Sep-28 23:32N 41°02' W 073°32'3 2.4
2014-Sep-28 22:30N 41°01' W 073°29'6 6.5
2014-Sep-28 21:33N 41°04' W 073°22'2 2.2
2014-Sep-28 20:33N 41°06' W 073°22'3 2.7
2014-Sep-28 19:34N 41°05' W 073°19'0 0.3
2014-Sep-28 18:32N 41°05' W 073°19'2 2.0
2014-Sep-28 17:32N 41°06' W 073°22'0 0.4
2014-Sep-28 16:33N 41°06' W 073°22'3 2.7
2014-Sep-28 15:32N 41°04' W 073°20'5 5.0
2014-Sep-28 14:33N 40°60' W 073°23'6 5.3
2014-Sep-28 13:31N 40°55' W 073°26'0 0.0
2014-Sep-28 12:31N 40°55' W 073°26'1 0.1
2014-Sep-27 21:33N 40°55' W 073°25'4 3.7
2014-Sep-27 20:24N 40°59' W 073°29'  
Track history (hours):
 
Tides and Currents Weather Stations Pressure Air Temp Water Temp Dewpoint Dewpoint Depression Visibility Wind Speed Wind Dir Waves Ship Positions

Satori

Owner: Wozny, Geoffrey A, Stamford, CT. More information available from US FCC via Universal Licensing System and Coast Guard Vessel Documentation Center.

Last reported at 2014-Sep-29 00:32 UTC. Time now 2014-Oct-25 04:23 UTC.
Position N 41°02' W 073°32'.
Warning: this ship's position is 26 days out of date.

Length 13 m.

Type: Sailing vessel. MMSI: 367033160.

Date/timePositionNaut miles runAvg speedWind from/ knotsBaromVisibWave heightAir tempDewpointWater temp
2014-Sep-29 00:32N 41°02' W 073°32'0 0.0
2014-Sep-28 23:32N 41°02' W 073°32'3 2.4
2014-Sep-28 22:30N 41°01' W 073°29'6 6.5
2014-Sep-28 21:33N 41°04' W 073°22'2 2.2
2014-Sep-28 20:33N 41°06' W 073°22'3 2.7
2014-Sep-28 19:34N 41°05' W 073°19'0 0.3
2014-Sep-28 18:32N 41°05' W 073°19'2 2.0
2014-Sep-28 17:32N 41°06' W 073°22'0 0.4
2014-Sep-28 16:33N 41°06' W 073°22'3 2.7
2014-Sep-28 15:32N 41°04' W 073°20'5 5.0
2014-Sep-28 14:33N 40°60' W 073°23'6 5.3
2014-Sep-28 13:31N 40°55' W 073°26'0 0.0
2014-Sep-28 12:31N 40°55' W 073°26'1 0.1
2014-Sep-27 21:33N 40°55' W 073°25'4 3.7
2014-Sep-27 20:24N 40°59' W 073°29'  

Dump ship's entire track history